sensor_id;sensor_type;location;lat;lon;timestamp;temperature;humidity
28247;DHT22;66191;53.178;22.058;2023-06-01T00:01:40;14.10;66.10
28247;DHT22;66191;53.178;22.058;2023-06-01T00:04:12;14.00;67.10
28247;DHT22;66191;53.178;22.058;2023-06-01T00:06:45;14.00;66.00
28247;DHT22;66191;53.178;22.058;2023-06-01T00:09:16;13.90;66.10
28247;DHT22;66191;53.178;22.058;2023-06-01T00:11:50;13.90;66.10
28247;DHT22;66191;53.178;22.058;2023-06-01T00:14:21;13.90;66.40
28247;DHT22;66191;53.178;22.058;2023-06-01T00:16:52;13.90;66.30
28247;DHT22;66191;53.178;22.058;2023-06-01T00:19:25;13.90;67.40
28247;DHT22;66191;53.178;22.058;2023-06-01T00:21:56;13.80;66.30
28247;DHT22;66191;53.178;22.058;2023-06-01T00:24:29;13.80;66.40
28247;DHT22;66191;53.178;22.058;2023-06-01T00:27:02;13.80;66.50
28247;DHT22;66191;53.178;22.058;2023-06-01T00:29:35;13.80;66.70
28247;DHT22;66191;53.178;22.058;2023-06-01T00:32:07;13.80;66.70
28247;DHT22;66191;53.178;22.058;2023-06-01T00:34:38;13.80;66.70
28247;DHT22;66191;53.178;22.058;2023-06-01T00:37:09;13.70;66.80
28247;DHT22;66191;53.178;22.058;2023-06-01T00:39:40;13.70;67.80
28247;DHT22;66191;53.178;22.058;2023-06-01T00:42:15;13.70;67.40
28247;DHT22;66191;53.178;22.058;2023-06-01T00:44:47;13.70;67.10
28247;DHT22;66191;53.178;22.058;2023-06-01T00:47:18;13.70;67.00
28247;DHT22;66191;53.178;22.058;2023-06-01T00:49:49;13.60;67.10
28247;DHT22;66191;53.178;22.058;2023-06-01T00:52:22;13.70;67.10
28247;DHT22;66191;53.178;22.058;2023-06-01T00:54:55;13.70;67.30
28247;DHT22;66191;53.178;22.058;2023-06-01T00:57:29;13.70;67.20
28247;DHT22;66191;53.178;22.058;2023-06-01T01:00:02;13.60;67.30
28247;DHT22;66191;53.178;22.058;2023-06-01T01:02:38;13.60;67.40
28247;DHT22;66191;53.178;22.058;2023-06-01T01:05:10;13.60;67.40
28247;DHT22;66191;53.178;22.058;2023-06-01T01:07:53;13.60;67.50
28247;DHT22;66191;53.178;22.058;2023-06-01T01:10:31;13.60;67.90
28247;DHT22;66191;53.178;22.058;2023-06-01T01:13:09;13.50;67.60
28247;DHT22;66191;53.178;22.058;2023-06-01T01:15:49;13.50;67.80
28247;DHT22;66191;53.178;22.058;2023-06-01T01:18:25;13.50;67.90
28247;DHT22;66191;53.178;22.058;2023-06-01T01:21:02;13.50;67.90
28247;DHT22;66191;53.178;22.058;2023-06-01T01:24:05;13.50;67.80
28247;DHT22;66191;53.178;22.058;2023-06-01T01:26:52;13.50;68.20
28247;DHT22;66191;53.178;22.058;2023-06-01T01:29:28;13.40;68.00
28247;DHT22;66191;53.178;22.058;2023-06-01T01:32:04;13.40;68.20
28247;DHT22;66191;53.178;22.058;2023-06-01T01:34:35;13.40;68.30
28247;DHT22;66191;53.178;22.058;2023-06-01T01:37:08;13.30;68.30
28247;DHT22;66191;53.178;22.058;2023-06-01T01:39:40;13.30;68.40
28247;DHT22;66191;53.178;22.058;2023-06-01T01:42:12;13.30;68.50
28247;DHT22;66191;53.178;22.058;2023-06-01T01:44:46;13.30;68.50
28247;DHT22;66191;53.178;22.058;2023-06-01T01:47:27;13.20;69.30
28247;DHT22;66191;53.178;22.058;2023-06-01T01:50:06;13.30;68.70
28247;DHT22;66191;53.178;22.058;2023-06-01T01:52:42;13.20;69.10
28247;DHT22;66191;53.178;22.058;2023-06-01T01:55:14;13.20;69.20
28247;DHT22;66191;53.178;22.058;2023-06-01T01:57:59;13.10;69.20
28247;DHT22;66191;53.178;22.058;2023-06-01T02:00:35;13.10;69.50
28247;DHT22;66191;53.178;22.058;2023-06-01T02:03:13;13.10;69.50
28247;DHT22;66191;53.178;22.058;2023-06-01T02:05:45;13.00;69.90
28247;DHT22;66191;53.178;22.058;2023-06-01T02:08:18;13.00;70.00
28247;DHT22;66191;53.178;22.058;2023-06-01T02:10:49;12.90;70.10
28247;DHT22;66191;53.178;22.058;2023-06-01T02:13:20;12.90;70.30
28247;DHT22;66191;53.178;22.058;2023-06-01T02:15:54;12.90;70.70
28247;DHT22;66191;53.178;22.058;2023-06-01T02:18:26;12.80;70.80
28247;DHT22;66191;53.178;22.058;2023-06-01T02:20:57;12.80;71.00
28247;DHT22;66191;53.178;22.058;2023-06-01T02:23:29;12.80;71.00
28247;DHT22;66191;53.178;22.058;2023-06-01T02:26:00;12.70;71.00
28247;DHT22;66191;53.178;22.058;2023-06-01T02:28:32;12.70;71.10
28247;DHT22;66191;53.178;22.058;2023-06-01T02:31:05;12.70;71.20
28247;DHT22;66191;53.178;22.058;2023-06-01T02:33:38;12.80;71.90
28247;DHT22;66191;53.178;22.058;2023-06-01T02:36:09;12.80;71.00
28247;DHT22;66191;53.178;22.058;2023-06-01T02:38:40;12.80;70.90
28247;DHT22;66191;53.178;22.058;2023-06-01T02:41:11;12.80;70.90
28247;DHT22;66191;53.178;22.058;2023-06-01T02:43:43;12.90;71.60
28247;DHT22;66191;53.178;22.058;2023-06-01T02:46:16;12.90;70.70
28247;DHT22;66191;53.178;22.058;2023-06-01T02:48:49;13.00;71.30
28247;DHT22;66191;53.178;22.058;2023-06-01T02:51:20;13.10;70.40
28247;DHT22;66191;53.178;22.058;2023-06-01T02:54:01;13.20;70.00
28247;DHT22;66191;53.178;22.058;2023-06-01T02:56:32;13.30;70.00
28247;DHT22;66191;53.178;22.058;2023-06-01T02:59:24;13.30;69.90
28247;DHT22;66191;53.178;22.058;2023-06-01T03:02:02;13.50;69.30
28247;DHT22;66191;53.178;22.058;2023-06-01T03:04:34;13.60;69.40
28247;DHT22;66191;53.178;22.058;2023-06-01T03:07:06;13.70;68.90
28247;DHT22;66191;53.178;22.058;2023-06-01T03:09:48;13.90;68.50
28247;DHT22;66191;53.178;22.058;2023-06-01T03:12:39;14.00;68.10
28247;DHT22;66191;53.178;22.058;2023-06-01T03:15:11;14.10;68.00
28247;DHT22;66191;53.178;22.058;2023-06-01T03:17:44;14.20;67.70
28247;DHT22;66191;53.178;22.058;2023-06-01T03:20:16;14.20;67.60
28247;DHT22;66191;53.178;22.058;2023-06-01T03:22:47;14.40;67.20
28247;DHT22;66191;53.178;22.058;2023-06-01T03:25:20;14.50;67.00
28247;DHT22;66191;53.178;22.058;2023-06-01T03:27:52;14.70;66.60
28247;DHT22;66191;53.178;22.058;2023-06-01T03:30:24;14.70;66.30
28247;DHT22;66191;53.178;22.058;2023-06-01T03:32:57;14.80;66.20
28247;DHT22;66191;53.178;22.058;2023-06-01T03:35:29;15.00;66.00
28247;DHT22;66191;53.178;22.058;2023-06-01T03:38:00;15.10;65.60
28247;DHT22;66191;53.178;22.058;2023-06-01T03:40:31;15.10;65.30
28247;DHT22;66191;53.178;22.058;2023-06-01T03:43:02;15.30;65.00
28247;DHT22;66191;53.178;22.058;2023-06-01T03:45:34;15.40;64.50
28247;DHT22;66191;53.178;22.058;2023-06-01T03:48:07;15.50;64.20
28247;DHT22;66191;53.178;22.058;2023-06-01T03:50:39;15.60;63.80
28247;DHT22;66191;53.178;22.058;2023-06-01T03:53:10;15.80;63.80
28247;DHT22;66191;53.178;22.058;2023-06-01T03:55:41;15.90;63.00
28247;DHT22;66191;53.178;22.058;2023-06-01T03:58:38;16.00;63.20
28247;DHT22;66191;53.178;22.058;2023-06-01T04:01:12;16.00;62.90
28247;DHT22;66191;53.178;22.058;2023-06-01T04:03:47;16.10;62.70
28247;DHT22;66191;53.178;22.058;2023-06-01T04:06:19;16.20;62.80
28247;DHT22;66191;53.178;22.058;2023-06-01T04:08:51;16.40;62.50
28247;DHT22;66191;53.178;22.058;2023-06-01T04:11:24;16.50;62.30
28247;DHT22;66191;53.178;22.058;2023-06-01T04:13:55;16.60;62.00
28247;DHT22;66191;53.178;22.058;2023-06-01T04:16:27;16.60;61.90
28247;DHT22;66191;53.178;22.058;2023-06-01T04:19:01;16.70;61.60
28247;DHT22;66191;53.178;22.058;2023-06-01T04:21:32;16.80;61.50
28247;DHT22;66191;53.178;22.058;2023-06-01T04:24:05;16.90;61.30
28247;DHT22;66191;53.178;22.058;2023-06-01T04:26:37;17.00;61.20
28247;DHT22;66191;53.178;22.058;2023-06-01T04:29:08;17.10;61.10
28247;DHT22;66191;53.178;22.058;2023-06-01T04:31:40;17.20;60.50
28247;DHT22;66191;53.178;22.058;2023-06-01T04:34:14;17.30;60.90
28247;DHT22;66191;53.178;22.058;2023-06-01T04:36:46;17.40;60.60
28247;DHT22;66191;53.178;22.058;2023-06-01T04:39:19;17.40;60.50
28247;DHT22;66191;53.178;22.058;2023-06-01T04:41:51;17.50;60.40
28247;DHT22;66191;53.178;22.058;2023-06-01T04:44:23;17.60;60.50
28247;DHT22;66191;53.178;22.058;2023-06-01T04:46:56;17.60;60.50
28247;DHT22;66191;53.178;22.058;2023-06-01T04:49:34;17.70;60.40
28247;DHT22;66191;53.178;22.058;2023-06-01T04:52:10;17.80;60.20
28247;DHT22;66191;53.178;22.058;2023-06-01T04:54:41;17.90;60.10
28247;DHT22;66191;53.178;22.058;2023-06-01T04:57:13;18.00;59.90
28247;DHT22;66191;53.178;22.058;2023-06-01T04:59:44;18.10;60.20
28247;DHT22;66191;53.178;22.058;2023-06-01T05:02:15;18.20;59.80
28247;DHT22;66191;53.178;22.058;2023-06-01T05:04:49;18.20;59.90
28247;DHT22;66191;53.178;22.058;2023-06-01T05:07:20;18.30;60.10
28247;DHT22;66191;53.178;22.058;2023-06-01T05:09:52;18.50;60.00
28247;DHT22;66191;53.178;22.058;2023-06-01T05:12:24;18.60;59.50
28247;DHT22;66191;53.178;22.058;2023-06-01T05:14:55;18.60;59.30
28247;DHT22;66191;53.178;22.058;2023-06-01T05:17:27;18.70;59.20
28247;DHT22;66191;53.178;22.058;2023-06-01T05:20:03;18.70;59.10
28247;DHT22;66191;53.178;22.058;2023-06-01T05:22:37;18.80;59.20
28247;DHT22;66191;53.178;22.058;2023-06-01T05:25:09;18.90;59.20
28247;DHT22;66191;53.178;22.058;2023-06-01T05:27:42;19.00;59.30
28247;DHT22;66191;53.178;22.058;2023-06-01T05:30:14;19.10;59.30
28247;DHT22;66191;53.178;22.058;2023-06-01T05:32:48;19.10;59.30
28247;DHT22;66191;53.178;22.058;2023-06-01T05:35:24;19.20;59.40
28247;DHT22;66191;53.178;22.058;2023-06-01T05:37:55;19.20;59.30
28247;DHT22;66191;53.178;22.058;2023-06-01T05:40:27;19.30;59.30
28247;DHT22;66191;53.178;22.058;2023-06-01T05:42:59;19.40;59.10
28247;DHT22;66191;53.178;22.058;2023-06-01T05:45:30;19.50;59.00
28247;DHT22;66191;53.178;22.058;2023-06-01T05:48:03;19.50;58.50
28247;DHT22;66191;53.178;22.058;2023-06-01T05:50:37;19.60;59.00
28247;DHT22;66191;53.178;22.058;2023-06-01T05:53:09;19.70;59.00
28247;DHT22;66191;53.178;22.058;2023-06-01T05:55:40;19.70;59.10
28247;DHT22;66191;53.178;22.058;2023-06-01T05:58:12;19.80;59.30
28247;DHT22;66191;53.178;22.058;2023-06-01T06:00:43;19.90;59.20
28247;DHT22;66191;53.178;22.058;2023-06-01T06:03:14;20.00;59.10
28247;DHT22;66191;53.178;22.058;2023-06-01T06:05:49;20.00;59.20
28247;DHT22;66191;53.178;22.058;2023-06-01T06:08:20;20.00;59.00
28247;DHT22;66191;53.178;22.058;2023-06-01T06:10:51;20.10;59.50
28247;DHT22;66191;53.178;22.058;2023-06-01T06:13:23;20.20;59.70
28247;DHT22;66191;53.178;22.058;2023-06-01T06:15:54;20.30;59.50
28247;DHT22;66191;53.178;22.058;2023-06-01T06:18:26;20.30;59.10
28247;DHT22;66191;53.178;22.058;2023-06-01T06:20:59;20.40;58.90
28247;DHT22;66191;53.178;22.058;2023-06-01T06:23:31;20.50;59.00
28247;DHT22;66191;53.178;22.058;2023-06-01T06:26:02;20.60;58.80
28247;DHT22;66191;53.178;22.058;2023-06-01T06:28:33;20.70;58.70
28247;DHT22;66191;53.178;22.058;2023-06-01T06:31:05;20.70;59.30
28247;DHT22;66191;53.178;22.058;2023-06-01T06:33:36;20.80;58.50
28247;DHT22;66191;53.178;22.058;2023-06-01T06:36:10;20.90;59.00
28247;DHT22;66191;53.178;22.058;2023-06-01T06:38:43;20.90;58.40
28247;DHT22;66191;53.178;22.058;2023-06-01T06:41:14;21.00;58.00
28247;DHT22;66191;53.178;22.058;2023-06-01T06:43:45;21.00;58.10
28247;DHT22;66191;53.178;22.058;2023-06-01T06:46:16;21.10;57.90
28247;DHT22;66191;53.178;22.058;2023-06-01T06:48:48;21.10;57.40
28247;DHT22;66191;53.178;22.058;2023-06-01T06:51:22;21.10;57.70
28247;DHT22;66191;53.178;22.058;2023-06-01T06:53:54;21.10;57.10
28247;DHT22;66191;53.178;22.058;2023-06-01T06:56:25;21.10;57.20
28247;DHT22;66191;53.178;22.058;2023-06-01T06:58:57;21.10;57.50
28247;DHT22;66191;53.178;22.058;2023-06-01T07:01:35;21.10;57.80
28247;DHT22;66191;53.178;22.058;2023-06-01T07:04:08;21.10;57.20
28247;DHT22;66191;53.178;22.058;2023-06-01T07:06:44;21.20;57.90
28247;DHT22;66191;53.178;22.058;2023-06-01T07:09:15;21.20;57.50
28247;DHT22;66191;53.178;22.058;2023-06-01T07:11:46;21.30;57.30
28247;DHT22;66191;53.178;22.058;2023-06-01T07:14:18;21.30;57.30
28247;DHT22;66191;53.178;22.058;2023-06-01T07:16:49;21.30;57.30
28247;DHT22;66191;53.178;22.058;2023-06-01T07:19:22;21.40;57.80
28247;DHT22;66191;53.178;22.058;2023-06-01T07:21:55;21.40;57.00
28247;DHT22;66191;53.178;22.058;2023-06-01T07:24:27;21.40;57.30
28247;DHT22;66191;53.178;22.058;2023-06-01T07:27:01;21.40;57.30
28247;DHT22;66191;53.178;22.058;2023-06-01T07:29:33;21.50;56.90
28247;DHT22;66191;53.178;22.058;2023-06-01T07:32:05;21.40;57.20
28247;DHT22;66191;53.178;22.058;2023-06-01T07:34:38;21.40;57.50
28247;DHT22;66191;53.178;22.058;2023-06-01T07:37:11;21.50;57.10
28247;DHT22;66191;53.178;22.058;2023-06-01T07:39:50;21.40;56.50
28247;DHT22;66191;53.178;22.058;2023-06-01T07:42:21;21.50;57.40
28247;DHT22;66191;53.178;22.058;2023-06-01T07:44:53;21.50;57.30
28247;DHT22;66191;53.178;22.058;2023-06-01T07:47:24;21.50;57.40
28247;DHT22;66191;53.178;22.058;2023-06-01T07:49:57;21.50;56.10
28247;DHT22;66191;53.178;22.058;2023-06-01T07:52:30;21.60;55.30
28247;DHT22;66191;53.178;22.058;2023-06-01T07:55:04;21.60;55.20
28247;DHT22;66191;53.178;22.058;2023-06-01T07:57:37;21.60;55.30
28247;DHT22;66191;53.178;22.058;2023-06-01T08:00:10;21.60;55.40
28247;DHT22;66191;53.178;22.058;2023-06-01T08:02:45;21.60;55.10
28247;DHT22;66191;53.178;22.058;2023-06-01T08:05:17;21.70;55.10
28247;DHT22;66191;53.178;22.058;2023-06-01T08:07:50;21.70;54.40
28247;DHT22;66191;53.178;22.058;2023-06-01T08:10:22;21.60;54.20
28247;DHT22;66191;53.178;22.058;2023-06-01T08:12:53;21.70;54.30
28247;DHT22;66191;53.178;22.058;2023-06-01T08:15:26;21.70;54.40
28247;DHT22;66191;53.178;22.058;2023-06-01T08:17:57;21.80;53.50
28247;DHT22;66191;53.178;22.058;2023-06-01T08:20:28;21.80;52.80
28247;DHT22;66191;53.178;22.058;2023-06-01T08:23:04;21.80;53.20
28247;DHT22;66191;53.178;22.058;2023-06-01T08:25:35;21.90;52.40
28247;DHT22;66191;53.178;22.058;2023-06-01T08:28:06;21.90;51.70
28247;DHT22;66191;53.178;22.058;2023-06-01T08:30:38;22.00;52.30
28247;DHT22;66191;53.178;22.058;2023-06-01T08:33:09;22.00;52.50
28247;DHT22;66191;53.178;22.058;2023-06-01T08:35:41;22.10;52.60
28247;DHT22;66191;53.178;22.058;2023-06-01T08:38:14;22.20;52.90
28247;DHT22;66191;53.178;22.058;2023-06-01T08:40:46;22.20;51.20
28247;DHT22;66191;53.178;22.058;2023-06-01T08:43:19;22.20;51.60
28247;DHT22;66191;53.178;22.058;2023-06-01T08:45:51;22.20;50.80
28247;DHT22;66191;53.178;22.058;2023-06-01T08:48:23;22.30;51.90
28247;DHT22;66191;53.178;22.058;2023-06-01T08:50:56;22.30;51.90
28247;DHT22;66191;53.178;22.058;2023-06-01T08:53:32;22.40;51.90
28247;DHT22;66191;53.178;22.058;2023-06-01T08:56:06;22.40;50.80
28247;DHT22;66191;53.178;22.058;2023-06-01T08:58:37;22.50;50.60
28247;DHT22;66191;53.178;22.058;2023-06-01T09:01:13;22.50;50.80
28247;DHT22;66191;53.178;22.058;2023-06-01T09:03:47;22.50;50.60
28247;DHT22;66191;53.178;22.058;2023-06-01T09:06:19;22.50;50.90
28247;DHT22;66191;53.178;22.058;2023-06-01T09:08:53;22.60;51.10
28247;DHT22;66191;53.178;22.058;2023-06-01T09:11:26;22.60;51.10
28247;DHT22;66191;53.178;22.058;2023-06-01T09:13:57;22.60;50.80
28247;DHT22;66191;53.178;22.058;2023-06-01T09:16:36;22.60;50.10
28247;DHT22;66191;53.178;22.058;2023-06-01T09:19:08;22.60;49.60
28247;DHT22;66191;53.178;22.058;2023-06-01T09:21:39;22.60;50.10
28247;DHT22;66191;53.178;22.058;2023-06-01T09:24:22;22.60;51.00
28247;DHT22;66191;53.178;22.058;2023-06-01T09:26:59;22.70;51.60
28247;DHT22;66191;53.178;22.058;2023-06-01T09:29:30;22.70;51.10
28247;DHT22;66191;53.178;22.058;2023-06-01T09:32:02;22.80;51.50
28247;DHT22;66191;53.178;22.058;2023-06-01T09:34:44;22.80;51.30
28247;DHT22;66191;53.178;22.058;2023-06-01T09:37:15;22.80;50.60
28247;DHT22;66191;53.178;22.058;2023-06-01T09:39:50;22.80;51.00
28247;DHT22;66191;53.178;22.058;2023-06-01T09:42:31;22.90;50.80
28247;DHT22;66191;53.178;22.058;2023-06-01T09:45:15;22.90;51.10
28247;DHT22;66191;53.178;22.058;2023-06-01T09:47:47;22.90;51.50
28247;DHT22;66191;53.178;22.058;2023-06-01T09:50:33;23.00;51.80
28247;DHT22;66191;53.178;22.058;2023-06-01T09:53:05;23.00;50.70
28247;DHT22;66191;53.178;22.058;2023-06-01T09:55:57;23.00;50.90
28247;DHT22;66191;53.178;22.058;2023-06-01T09:58:29;23.10;51.10
28247;DHT22;66191;53.178;22.058;2023-06-01T10:01:02;23.10;51.00
28247;DHT22;66191;53.178;22.058;2023-06-01T10:03:40;23.10;50.60
28247;DHT22;66191;53.178;22.058;2023-06-01T10:06:12;23.20;51.00
28247;DHT22;66191;53.178;22.058;2023-06-01T10:08:44;23.20;51.30
28247;DHT22;66191;53.178;22.058;2023-06-01T10:11:19;23.30;50.80
28247;DHT22;66191;53.178;22.058;2023-06-01T10:13:51;23.30;50.80
28247;DHT22;66191;53.178;22.058;2023-06-01T10:16:22;23.30;50.60
28247;DHT22;66191;53.178;22.058;2023-06-01T10:18:54;23.30;50.90
28247;DHT22;66191;53.178;22.058;2023-06-01T10:21:26;23.40;51.40
28247;DHT22;66191;53.178;22.058;2023-06-01T10:23:58;23.40;51.00
28247;DHT22;66191;53.178;22.058;2023-06-01T10:26:35;23.40;50.50
28247;DHT22;66191;53.178;22.058;2023-06-01T10:29:08;23.50;50.00
28247;DHT22;66191;53.178;22.058;2023-06-01T10:31:40;23.50;50.50
28247;DHT22;66191;53.178;22.058;2023-06-01T10:34:13;23.50;50.40
28247;DHT22;66191;53.178;22.058;2023-06-01T10:39:46;23.60;51.10
28247;DHT22;66191;53.178;22.058;2023-06-01T10:42:38;23.50;51.50
28247;DHT22;66191;53.178;22.058;2023-06-01T10:45:38;23.60;51.20
28247;DHT22;66191;53.178;22.058;2023-06-01T10:48:11;23.60;51.30
28247;DHT22;66191;53.178;22.058;2023-06-01T10:50:43;23.60;51.40
28247;DHT22;66191;53.178;22.058;2023-06-01T10:53:33;23.70;51.70
28247;DHT22;66191;53.178;22.058;2023-06-01T10:56:22;23.70;51.20
28247;DHT22;66191;53.178;22.058;2023-06-01T10:59:12;23.70;50.80
28247;DHT22;66191;53.178;22.058;2023-06-01T11:01:47;23.70;51.30
28247;DHT22;66191;53.178;22.058;2023-06-01T11:04:34;23.80;51.10
28247;DHT22;66191;53.178;22.058;2023-06-01T11:07:37;23.80;51.50
28247;DHT22;66191;53.178;22.058;2023-06-01T11:10:09;23.80;50.70
28247;DHT22;66191;53.178;22.058;2023-06-01T11:13:10;23.90;51.30
28247;DHT22;66191;53.178;22.058;2023-06-01T11:18:52;24.00;50.40
28247;DHT22;66191;53.178;22.058;2023-06-01T11:21:27;24.00;51.10
28247;DHT22;66191;53.178;22.058;2023-06-01T11:24:01;24.00;51.00
28247;DHT22;66191;53.178;22.058;2023-06-01T11:26:37;24.10;51.70
28247;DHT22;66191;53.178;22.058;2023-06-01T11:29:14;24.10;50.60
28247;DHT22;66191;53.178;22.058;2023-06-01T11:31:46;24.20;50.20
28247;DHT22;66191;53.178;22.058;2023-06-01T11:34:31;24.20;50.00
28247;DHT22;66191;53.178;22.058;2023-06-01T11:37:12;24.30;50.10
28247;DHT22;66191;53.178;22.058;2023-06-01T11:39:46;24.30;50.40
28247;DHT22;66191;53.178;22.058;2023-06-01T11:42:19;24.20;50.30
28247;DHT22;66191;53.178;22.058;2023-06-01T11:44:57;24.30;49.80
28247;DHT22;66191;53.178;22.058;2023-06-01T11:47:31;24.30;49.10
28247;DHT22;66191;53.178;22.058;2023-06-01T11:50:20;24.30;49.20
28247;DHT22;66191;53.178;22.058;2023-06-01T11:52:55;24.30;48.90
28247;DHT22;66191;53.178;22.058;2023-06-01T11:55:27;24.40;49.10
28247;DHT22;66191;53.178;22.058;2023-06-01T11:57:58;24.40;48.90
28247;DHT22;66191;53.178;22.058;2023-06-01T12:00:30;24.40;49.40
28247;DHT22;66191;53.178;22.058;2023-06-01T12:03:07;24.40;49.20
28247;DHT22;66191;53.178;22.058;2023-06-01T12:05:43;24.50;48.90
28247;DHT22;66191;53.178;22.058;2023-06-01T12:08:18;24.40;48.30
28247;DHT22;66191;53.178;22.058;2023-06-01T12:10:51;24.50;48.90
28247;DHT22;66191;53.178;22.058;2023-06-01T12:13:23;24.50;49.30
28247;DHT22;66191;53.178;22.058;2023-06-01T12:15:55;24.60;48.60
28247;DHT22;66191;53.178;22.058;2023-06-01T12:18:40;24.50;48.10
28247;DHT22;66191;53.178;22.058;2023-06-01T12:21:15;24.50;48.50
28247;DHT22;66191;53.178;22.058;2023-06-01T12:23:49;24.50;49.00
28247;DHT22;66191;53.178;22.058;2023-06-01T12:26:22;24.50;49.00
28247;DHT22;66191;53.178;22.058;2023-06-01T12:29:05;24.60;49.30
28247;DHT22;66191;53.178;22.058;2023-06-01T12:31:36;24.60;48.60
28247;DHT22;66191;53.178;22.058;2023-06-01T12:34:15;24.60;48.90
28247;DHT22;66191;53.178;22.058;2023-06-01T12:36:50;24.60;48.00
28247;DHT22;66191;53.178;22.058;2023-06-01T12:39:32;24.60;48.00
28247;DHT22;66191;53.178;22.058;2023-06-01T12:42:06;24.60;47.80
28247;DHT22;66191;53.178;22.058;2023-06-01T12:44:39;24.70;48.50
28247;DHT22;66191;53.178;22.058;2023-06-01T12:47:10;24.70;48.00
28247;DHT22;66191;53.178;22.058;2023-06-01T12:50:01;24.70;48.60
28247;DHT22;66191;53.178;22.058;2023-06-01T12:52:36;24.70;48.50
28247;DHT22;66191;53.178;22.058;2023-06-01T12:55:09;24.80;48.50
28247;DHT22;66191;53.178;22.058;2023-06-01T12:57:41;24.80;48.30
28247;DHT22;66191;53.178;22.058;2023-06-01T13:00:13;24.90;48.50
28247;DHT22;66191;53.178;22.058;2023-06-01T13:02:45;24.90;48.20
28247;DHT22;66191;53.178;22.058;2023-06-01T13:05:18;25.00;47.90
28247;DHT22;66191;53.178;22.058;2023-06-01T13:07:54;25.00;47.70
28247;DHT22;66191;53.178;22.058;2023-06-01T13:10:26;25.10;47.50
28247;DHT22;66191;53.178;22.058;2023-06-01T13:12:58;25.20;47.40
28247;DHT22;66191;53.178;22.058;2023-06-01T13:15:29;25.10;47.30
28247;DHT22;66191;53.178;22.058;2023-06-01T13:18:00;25.10;47.30
28247;DHT22;66191;53.178;22.058;2023-06-01T13:20:32;25.10;47.10
28247;DHT22;66191;53.178;22.058;2023-06-01T13:23:06;25.10;47.30
28247;DHT22;66191;53.178;22.058;2023-06-01T13:25:38;25.10;47.10
28247;DHT22;66191;53.178;22.058;2023-06-01T13:28:10;25.10;46.60
28247;DHT22;66191;53.178;22.058;2023-06-01T13:30:41;25.20;46.80
28247;DHT22;66191;53.178;22.058;2023-06-01T13:33:12;25.20;46.50
28247;DHT22;66191;53.178;22.058;2023-06-01T13:35:44;25.30;46.40
28247;DHT22;66191;53.178;22.058;2023-06-01T13:38:18;25.30;45.80
28247;DHT22;66191;53.178;22.058;2023-06-01T13:40:49;25.30;46.10
28247;DHT22;66191;53.178;22.058;2023-06-01T13:43:20;25.40;45.70
28247;DHT22;66191;53.178;22.058;2023-06-01T13:45:51;25.30;46.10
28247;DHT22;66191;53.178;22.058;2023-06-01T13:48:23;25.30;46.20
28247;DHT22;66191;53.178;22.058;2023-06-01T13:50:54;25.30;46.00
28247;DHT22;66191;53.178;22.058;2023-06-01T13:53:28;25.30;46.20
28247;DHT22;66191;53.178;22.058;2023-06-01T13:55:59;25.40;46.70
28247;DHT22;66191;53.178;22.058;2023-06-01T13:58:31;25.40;46.60
28247;DHT22;66191;53.178;22.058;2023-06-01T14:01:03;25.40;46.70
28247;DHT22;66191;53.178;22.058;2023-06-01T14:03:35;25.40;47.00
28247;DHT22;66191;53.178;22.058;2023-06-01T14:06:06;25.40;46.60
28247;DHT22;66191;53.178;22.058;2023-06-01T14:08:40;25.40;46.80
28247;DHT22;66191;53.178;22.058;2023-06-01T14:11:11;25.40;46.90
28247;DHT22;66191;53.178;22.058;2023-06-01T14:13:42;25.40;47.30
28247;DHT22;66191;53.178;22.058;2023-06-01T14:16:13;25.40;47.10
28247;DHT22;66191;53.178;22.058;2023-06-01T14:18:45;25.50;47.00
28247;DHT22;66191;53.178;22.058;2023-06-01T14:21:16;25.50;46.70
28247;DHT22;66191;53.178;22.058;2023-06-01T14:23:50;25.50;46.60
28247;DHT22;66191;53.178;22.058;2023-06-01T14:26:21;25.50;46.60
28247;DHT22;66191;53.178;22.058;2023-06-01T14:28:52;25.60;46.70
28247;DHT22;66191;53.178;22.058;2023-06-01T14:31:23;25.50;46.80
28247;DHT22;66191;53.178;22.058;2023-06-01T14:33:55;25.40;46.80
28247;DHT22;66191;53.178;22.058;2023-06-01T14:36:26;25.50;47.40
28247;DHT22;66191;53.178;22.058;2023-06-01T14:39:16;25.40;47.40
28247;DHT22;66191;53.178;22.058;2023-06-01T14:41:47;25.50;47.40
28247;DHT22;66191;53.178;22.058;2023-06-01T14:44:19;25.40;47.60
28247;DHT22;66191;53.178;22.058;2023-06-01T14:46:50;25.40;47.60
28247;DHT22;66191;53.178;22.058;2023-06-01T14:49:22;25.30;48.00
28247;DHT22;66191;53.178;22.058;2023-06-01T14:52:09;25.30;47.90
28247;DHT22;66191;53.178;22.058;2023-06-01T14:54:43;25.30;47.80
28247;DHT22;66191;53.178;22.058;2023-06-01T14:57:14;25.20;47.30
28247;DHT22;66191;53.178;22.058;2023-06-01T14:59:46;25.20;47.80
28247;DHT22;66191;53.178;22.058;2023-06-01T15:02:30;25.20;47.90
28247;DHT22;66191;53.178;22.058;2023-06-01T15:05:02;25.20;47.70
28247;DHT22;66191;53.178;22.058;2023-06-01T15:07:33;25.20;47.70
28247;DHT22;66191;53.178;22.058;2023-06-01T15:10:08;25.10;47.60
28247;DHT22;66191;53.178;22.058;2023-06-01T15:12:40;25.10;47.60
28247;DHT22;66191;53.178;22.058;2023-06-01T15:15:11;25.10;47.90
28247;DHT22;66191;53.178;22.058;2023-06-01T15:17:43;25.10;48.00
28247;DHT22;66191;53.178;22.058;2023-06-01T15:20:14;25.20;48.30
28247;DHT22;66191;53.178;22.058;2023-06-01T15:22:45;25.10;48.20
28247;DHT22;66191;53.178;22.058;2023-06-01T15:25:19;25.10;48.00
28247;DHT22;66191;53.178;22.058;2023-06-01T15:27:50;25.10;47.80
28247;DHT22;66191;53.178;22.058;2023-06-01T15:30:22;25.10;47.40
28247;DHT22;66191;53.178;22.058;2023-06-01T15:32:53;25.00;47.30
28247;DHT22;66191;53.178;22.058;2023-06-01T15:35:35;24.90;47.70
28247;DHT22;66191;53.178;22.058;2023-06-01T15:38:07;24.90;48.00
28247;DHT22;66191;53.178;22.058;2023-06-01T15:40:46;24.90;48.10
28247;DHT22;66191;53.178;22.058;2023-06-01T15:43:17;24.90;48.40
28247;DHT22;66191;53.178;22.058;2023-06-01T15:45:48;24.90;48.40
28247;DHT22;66191;53.178;22.058;2023-06-01T15:48:20;24.80;48.40
28247;DHT22;66191;53.178;22.058;2023-06-01T15:50:51;24.70;48.90
28247;DHT22;66191;53.178;22.058;2023-06-01T15:53:23;24.70;50.70
28247;DHT22;66191;53.178;22.058;2023-06-01T15:55:58;24.70;49.10
28247;DHT22;66191;53.178;22.058;2023-06-01T15:58:39;24.60;48.70
28247;DHT22;66191;53.178;22.058;2023-06-01T16:01:11;24.60;49.00
28247;DHT22;66191;53.178;22.058;2023-06-01T16:03:56;24.60;49.20